sensor_id;sensor_type;location;lat;lon;timestamp;P1;durP1;ratioP1;P2;durP2;ratioP2
8885;SDS011;4479;51.162;13.906;2022-08-01T00:02:15;1.67;;;1.57;;
8885;SDS011;4479;51.162;13.906;2022-08-01T00:12:18;3.27;;;1.70;;
8885;SDS011;4479;51.162;13.906;2022-08-01T00:22:22;1.93;;;1.80;;
8885;SDS011;4479;51.162;13.906;2022-08-01T00:32:25;2.53;;;1.77;;
8885;SDS011;4479;51.162;13.906;2022-08-01T00:42:29;1.90;;;1.80;;
8885;SDS011;4479;51.162;13.906;2022-08-01T00:52:32;2.40;;;1.70;;
8885;SDS011;4479;51.162;13.906;2022-08-01T01:02:36;2.33;;;1.90;;
8885;SDS011;4479;51.162;13.906;2022-08-01T01:12:41;1.90;;;1.80;;
8885;SDS011;4479;51.162;13.906;2022-08-01T01:22:56;1.80;;;1.70;;
8885;SDS011;4479;51.162;13.906;2022-08-01T01:33:13;2.67;;;2.00;;
8885;SDS011;4479;51.162;13.906;2022-08-01T01:43:17;2.07;;;1.87;;
8885;SDS011;4479;51.162;13.906;2022-08-01T01:53:21;2.17;;;1.97;;
8885;SDS011;4479;51.162;13.906;2022-08-01T02:03:25;1.87;;;1.77;;
8885;SDS011;4479;51.162;13.906;2022-08-01T02:13:30;1.97;;;1.87;;
8885;SDS011;4479;51.162;13.906;2022-08-01T02:23:33;1.80;;;1.70;;
8885;SDS011;4479;51.162;13.906;2022-08-01T02:33:39;3.17;;;1.67;;
8885;SDS011;4479;51.162;13.906;2022-08-01T02:43:43;1.70;;;1.60;;
8885;SDS011;4479;51.162;13.906;2022-08-01T02:53:51;2.13;;;1.70;;
8885;SDS011;4479;51.162;13.906;2022-08-01T03:03:54;1.90;;;1.80;;
8885;SDS011;4479;51.162;13.906;2022-08-01T03:14:00;2.03;;;1.83;;
8885;SDS011;4479;51.162;13.906;2022-08-01T03:24:05;1.70;;;1.60;;
8885;SDS011;4479;51.162;13.906;2022-08-01T03:34:10;1.43;;;1.33;;
8885;SDS011;4479;51.162;13.906;2022-08-01T03:44:13;2.10;;;1.90;;
8885;SDS011;4479;51.162;13.906;2022-08-01T03:54:20;2.77;;;1.87;;
8885;SDS011;4479;51.162;13.906;2022-08-01T04:04:25;1.93;;;1.83;;
8885;SDS011;4479;51.162;13.906;2022-08-01T04:14:29;2.40;;;1.83;;
8885;SDS011;4479;51.162;13.906;2022-08-01T04:24:32;1.67;;;1.57;;
8885;SDS011;4479;51.162;13.906;2022-08-01T04:34:40;1.97;;;1.77;;
8885;SDS011;4479;51.162;13.906;2022-08-01T04:44:46;1.77;;;1.67;;
8885;SDS011;4479;51.162;13.906;2022-08-01T04:54:51;1.77;;;1.67;;
8885;SDS011;4479;51.162;13.906;2022-08-01T05:04:55;2.70;;;1.97;;
8885;SDS011;4479;51.162;13.906;2022-08-01T05:15:01;1.80;;;1.70;;
8885;SDS011;4479;51.162;13.906;2022-08-01T05:25:05;2.10;;;1.90;;
8885;SDS011;4479;51.162;13.906;2022-08-01T05:35:10;2.33;;;1.77;;
8885;SDS011;4479;51.162;13.906;2022-08-01T05:45:14;2.17;;;2.03;;
8885;SDS011;4479;51.162;13.906;2022-08-01T05:55:19;2.77;;;2.10;;
8885;SDS011;4479;51.162;13.906;2022-08-01T06:05:23;3.47;;;2.00;;
8885;SDS011;4479;51.162;13.906;2022-08-01T06:15:28;2.40;;;1.80;;
8885;SDS011;4479;51.162;13.906;2022-08-01T06:25:32;1.90;;;1.80;;
8885;SDS011;4479;51.162;13.906;2022-08-01T06:35:37;1.97;;;1.87;;
8885;SDS011;4479;51.162;13.906;2022-08-01T06:45:40;1.97;;;1.80;;
8885;SDS011;4479;51.162;13.906;2022-08-01T06:55:45;1.70;;;1.60;;
8885;SDS011;4479;51.162;13.906;2022-08-01T07:05:49;1.90;;;1.80;;
8885;SDS011;4479;51.162;13.906;2022-08-01T07:15:54;1.87;;;1.77;;
8885;SDS011;4479;51.162;13.906;2022-08-01T07:25:58;2.60;;;1.80;;
8885;SDS011;4479;51.162;13.906;2022-08-01T07:36:04;1.67;;;1.57;;
8885;SDS011;4479;51.162;13.906;2022-08-01T07:46:07;1.50;;;1.40;;
8885;SDS011;4479;51.162;13.906;2022-08-01T07:56:14;1.50;;;1.40;;
8885;SDS011;4479;51.162;13.906;2022-08-01T08:06:17;1.50;;;1.40;;
8885;SDS011;4479;51.162;13.906;2022-08-01T08:16:22;2.07;;;1.50;;
8885;SDS011;4479;51.162;13.906;2022-08-01T08:26:27;1.60;;;1.50;;
8885;SDS011;4479;51.162;13.906;2022-08-01T08:36:32;1.33;;;1.23;;
8885;SDS011;4479;51.162;13.906;2022-08-01T08:46:40;1.30;;;1.20;;
8885;SDS011;4479;51.162;13.906;2022-08-01T08:56:47;1.40;;;1.30;;
8885;SDS011;4479;51.162;13.906;2022-08-01T09:06:51;1.30;;;1.20;;
8885;SDS011;4479;51.162;13.906;2022-08-01T09:17:00;0.90;;;0.90;;
8885;SDS011;4479;51.162;13.906;2022-08-01T09:27:17;2.83;;;1.10;;
8885;SDS011;4479;51.162;13.906;2022-08-01T09:37:30;0.90;;;0.90;;
8885;SDS011;4479;51.162;13.906;2022-08-01T09:47:37;1.37;;;1.10;;
8885;SDS011;4479;51.162;13.906;2022-08-01T09:57:42;1.30;;;1.20;;
8885;SDS011;4479;51.162;13.906;2022-08-01T10:07:59;1.10;;;1.10;;
8885;SDS011;4479;51.162;13.906;2022-08-01T10:18:06;1.30;;;1.20;;
8885;SDS011;4479;51.162;13.906;2022-08-01T10:28:13;1.60;;;1.50;;
8885;SDS011;4479;51.162;13.906;2022-08-01T10:38:20;1.50;;;1.40;;
8885;SDS011;4479;51.162;13.906;2022-08-01T10:48:24;2.70;;;1.30;;
8885;SDS011;4479;51.162;13.906;2022-08-01T10:58:34;1.03;;;0.90;;
8885;SDS011;4479;51.162;13.906;2022-08-01T11:08:38;1.07;;;0.80;;
8885;SDS011;4479;51.162;13.906;2022-08-01T11:18:50;0.70;;;0.70;;
8885;SDS011;4479;51.162;13.906;2022-08-01T11:29:13;0.50;;;0.50;;
8885;SDS011;4479;51.162;13.906;2022-08-01T11:39:21;2.00;;;0.67;;
8885;SDS011;4479;51.162;13.906;2022-08-01T11:49:25;0.67;;;0.63;;
8885;SDS011;4479;51.162;13.906;2022-08-01T11:59:39;2.40;;;0.50;;
8885;SDS011;4479;51.162;13.906;2022-08-01T12:09:46;0.50;;;0.50;;
8885;SDS011;4479;51.162;13.906;2022-08-01T12:19:52;0.47;;;0.47;;
8885;SDS011;4479;51.162;13.906;2022-08-01T12:29:55;0.60;;;0.60;;
8885;SDS011;4479;51.162;13.906;2022-08-01T12:40:06;0.87;;;0.80;;
8885;SDS011;4479;51.162;13.906;2022-08-01T12:50:15;0.97;;;0.87;;
8885;SDS011;4479;51.162;13.906;2022-08-01T13:00:22;1.37;;;0.90;;
8885;SDS011;4479;51.162;13.906;2022-08-01T13:10:26;0.70;;;0.60;;
8885;SDS011;4479;51.162;13.906;2022-08-01T13:20:32;0.60;;;0.60;;
8885;SDS011;4479;51.162;13.906;2022-08-01T13:30:38;1.50;;;1.17;;
8885;SDS011;4479;51.162;13.906;2022-08-01T13:40:43;3.73;;;1.10;;
8885;SDS011;4479;51.162;13.906;2022-08-01T13:50:47;1.17;;;1.00;;
8885;SDS011;4479;51.162;13.906;2022-08-01T14:00:53;0.80;;;0.80;;
8885;SDS011;4479;51.162;13.906;2022-08-01T14:10:57;1.63;;;0.90;;
8885;SDS011;4479;51.162;13.906;2022-08-01T14:21:02;1.07;;;0.97;;
8885;SDS011;4479;51.162;13.906;2022-08-01T14:31:06;0.70;;;0.70;;
8885;SDS011;4479;51.162;13.906;2022-08-01T14:41:11;0.70;;;0.70;;
8885;SDS011;4479;51.162;13.906;2022-08-01T14:51:15;0.60;;;0.60;;
8885;SDS011;4479;51.162;13.906;2022-08-01T15:01:20;0.80;;;0.80;;
8885;SDS011;4479;51.162;13.906;2022-08-01T15:11:24;0.83;;;0.83;;
8885;SDS011;4479;51.162;13.906;2022-08-01T15:21:29;2.20;;;0.60;;
8885;SDS011;4479;51.162;13.906;2022-08-01T15:31:35;0.70;;;0.70;;
8885;SDS011;4479;51.162;13.906;2022-08-01T15:41:40;0.60;;;0.60;;
8885;SDS011;4479;51.162;13.906;2022-08-01T15:51:44;0.77;;;0.77;;
8885;SDS011;4479;51.162;13.906;2022-08-01T16:01:49;0.63;;;0.63;;
8885;SDS011;4479;51.162;13.906;2022-08-01T16:11:52;0.63;;;0.63;;
8885;SDS011;4479;51.162;13.906;2022-08-01T16:21:58;1.30;;;0.70;;
8885;SDS011;4479;51.162;13.906;2022-08-01T16:32:01;0.67;;;0.67;;
8885;SDS011;4479;51.162;13.906;2022-08-01T16:42:08;0.80;;;0.60;;
8885;SDS011;4479;51.162;13.906;2022-08-01T16:52:11;0.60;;;0.60;;
8885;SDS011;4479;51.162;13.906;2022-08-01T17:02:16;0.90;;;0.90;;
8885;SDS011;4479;51.162;13.906;2022-08-01T17:12:22;0.60;;;0.60;;
8885;SDS011;4479;51.162;13.906;2022-08-01T17:22:27;0.50;;;0.50;;
8885;SDS011;4479;51.162;13.906;2022-08-01T17:32:31;0.50;;;0.50;;
8885;SDS011;4479;51.162;13.906;2022-08-01T17:42:36;0.40;;;0.40;;
8885;SDS011;4479;51.162;13.906;2022-08-01T17:52:41;0.80;;;0.50;;
8885;SDS011;4479;51.162;13.906;2022-08-01T18:02:47;0.50;;;0.50;;
8885;SDS011;4479;51.162;13.906;2022-08-01T18:12:51;0.40;;;0.40;;
8885;SDS011;4479;51.162;13.906;2022-08-01T18:22:57;1.53;;;0.50;;
8885;SDS011;4479;51.162;13.906;2022-08-01T18:33:00;0.63;;;0.50;;
8885;SDS011;4479;51.162;13.906;2022-08-01T18:43:05;0.40;;;0.40;;
8885;SDS011;4479;51.162;13.906;2022-08-01T18:53:08;0.50;;;0.50;;
8885;SDS011;4479;51.162;13.906;2022-08-01T19:14:28;0.60;;;0.60;;
8885;SDS011;4479;51.162;13.906;2022-08-01T19:24:32;0.50;;;0.50;;
8885;SDS011;4479;51.162;13.906;2022-08-01T19:34:41;0.60;;;0.60;;
8885;SDS011;4479;51.162;13.906;2022-08-01T19:44:48;0.60;;;0.60;;
8885;SDS011;4479;51.162;13.906;2022-08-01T19:54:54;0.60;;;0.60;;
8885;SDS011;4479;51.162;13.906;2022-08-01T20:04:58;0.50;;;0.50;;
8885;SDS011;4479;51.162;13.906;2022-08-01T20:15:04;1.37;;;0.70;;
8885;SDS011;4479;51.162;13.906;2022-08-01T20:25:08;0.60;;;0.60;;
8885;SDS011;4479;51.162;13.906;2022-08-01T20:35:14;0.70;;;0.70;;
8885;SDS011;4479;51.162;13.906;2022-08-01T20:45:18;0.60;;;0.60;;
8885;SDS011;4479;51.162;13.906;2022-08-01T20:55:25;0.60;;;0.60;;
8885;SDS011;4479;51.162;13.906;2022-08-01T21:05:35;1.40;;;1.30;;
8885;SDS011;4479;51.162;13.906;2022-08-01T21:15:46;1.50;;;1.20;;
8885;SDS011;4479;51.162;13.906;2022-08-01T21:25:54;2.03;;;1.07;;
8885;SDS011;4479;51.162;13.906;2022-08-01T21:36:01;0.60;;;0.60;;
8885;SDS011;4479;51.162;13.906;2022-08-01T21:46:05;0.63;;;0.60;;
8885;SDS011;4479;51.162;13.906;2022-08-01T21:56:14;0.70;;;0.70;;
8885;SDS011;4479;51.162;13.906;2022-08-01T22:06:29;0.70;;;0.70;;
8885;SDS011;4479;51.162;13.906;2022-08-01T22:16:38;0.60;;;0.60;;
8885;SDS011;4479;51.162;13.906;2022-08-01T22:26:42;0.50;;;0.50;;
8885;SDS011;4479;51.162;13.906;2022-08-01T22:36:51;0.70;;;0.70;;
8885;SDS011;4479;51.162;13.906;2022-08-01T22:46:59;0.90;;;0.67;;
8885;SDS011;4479;51.162;13.906;2022-08-01T22:57:09;0.53;;;0.53;;
8885;SDS011;4479;51.162;13.906;2022-08-01T23:07:16;0.60;;;0.60;;
8885;SDS011;4479;51.162;13.906;2022-08-01T23:17:24;0.70;;;0.70;;
8885;SDS011;4479;51.162;13.906;2022-08-01T23:27:29;0.70;;;0.70;;
8885;SDS011;4479;51.162;13.906;2022-08-01T23:37:36;2.00;;;0.80;;
8885;SDS011;4479;51.162;13.906;2022-08-01T23:47:40;0.70;;;0.70;;
8885;SDS011;4479;51.162;13.906;2022-08-01T23:57:45;0.80;;;0.80;;
